Time;durP1;ratioP1;P1;durP2;ratioP2;P2;SDS_P1;SDS_P2;PMS_P1;PMS_P2;Temp;Humidity;BMP_temperature;BMP_pressure;BME280_temperature;BME280_humidity;BME280_pressure;Samples;Min_cycle;Max_cycle;Signal;HPM_P1;HPM_P2
2021/12/12 00:01:35;;;;;;;;;;;7.80;57.80;;;;;;5073701;28;19908;-66
2021/12/12 00:04:11;;;;;;;;;;;7.80;57.90;;;;;;5073636;28;19909;-66
2021/12/12 00:06:39;;;;;;;;;;;7.90;57.90;;;;;;5072341;28;19985;-66
2021/12/12 00:09:11;;;;;;;;;;;7.80;57.90;;;;;;5073590;28;19908;-66
2021/12/12 00:11:37;;;;;;;;;;;7.90;57.90;;;;;;5073565;28;19950;-66
2021/12/12 00:14:05;;;;;;;;;;;7.80;57.90;;;;;;5073434;28;19958;-67
2021/12/12 00:16:31;;;;;;;;;;;7.80;57.80;;;;;;5073241;28;19928;-66
2021/12/12 00:18:57;;;;;;;;;;;7.80;57.80;;;;;;5073349;28;19912;-67
2021/12/12 00:21:23;;;;;;;;;;;7.80;57.80;;;;;;5073277;28;19915;-66
2021/12/12 00:23:49;;;;;;;;;;;7.80;57.90;;;;;;5073426;28;19908;-66
2021/12/12 00:26:15;;;;;;;;;;;7.80;57.90;;;;;;5073426;28;19983;-66
2021/12/12 00:28:40;;;;;;;;;;;7.80;57.90;;;;;;5073277;28;19909;-66
2021/12/12 00:31:10;;;;;;;;;;;7.80;58.00;;;;;;5073301;28;19909;-66
2021/12/12 00:33:36;;;;;;;;;;;7.80;58.00;;;;;;5073331;28;19948;-66
2021/12/12 00:36:02;;;;;;;;;;;7.80;58.00;;;;;;5071929;28;20317;-66
2021/12/12 00:38:29;;;;;;;;;;;7.80;58.00;;;;;;5073240;28;19931;-66
2021/12/12 00:40:57;;;;;;;;;;;7.80;58.00;;;;;;5073192;28;19975;-66
2021/12/12 00:43:25;;;;;;;;;;;7.80;58.00;;;;;;5073237;28;19909;-66
2021/12/12 00:45:53;;;;;;;;;;;7.80;58.10;;;;;;5073169;28;19934;-66
2021/12/12 00:48:18;;;;;;;;;;;7.80;58.10;;;;;;5073196;28;19916;-65
2021/12/12 00:50:44;;;;;;;;;;;7.80;58.10;;;;;;5073098;28;19909;-66
2021/12/12 00:53:11;;;;;;;;;;;7.90;58.20;;;;;;5073152;28;19909;-66
2021/12/12 00:55:38;;;;;;;;;;;7.80;58.10;;;;;;5073108;28;20020;-66
2021/12/12 00:58:04;;;;;;;;;;;7.90;58.80;;;;;;5073070;28;19995;-66
2021/12/12 01:00:36;;;;;;;;;;;7.80;58.10;;;;;;5072997;28;19912;-66
2021/12/12 01:03:02;;;;;;;;;;;7.80;58.10;;;;;;5073030;28;20423;-67
2021/12/12 01:05:28;;;;;;;;;;;7.90;58.20;;;;;;5072984;28;19908;-66
2021/12/12 01:07:54;;;;;;;;;;;7.80;58.10;;;;;;5073040;28;20417;-66
2021/12/12 01:10:23;;;;;;;;;;;7.80;58.10;;;;;;5072949;28;19947;-66
2021/12/12 01:12:50;;;;;;;;;;;7.80;58.10;;;;;;5072954;28;19909;-66
2021/12/12 01:15:34;;;;;;;;;;;7.80;58.10;;;;;;5072841;28;20381;-66
2021/12/12 01:18:02;;;;;;;;;;;7.80;58.20;;;;;;5072863;28;20006;-66
2021/12/12 01:20:52;;;;;;;;;;;7.80;58.20;;;;;;5072698;28;19912;-66
2021/12/12 01:23:23;;;;;;;;;;;7.80;58.20;;;;;;5072361;28;20280;-66
2021/12/12 01:25:49;;;;;;;;;;;7.80;58.20;;;;;;5073197;28;20349;-66
2021/12/12 01:28:20;;;;;;;;;;;7.70;58.20;;;;;;5072720;28;19912;-66
2021/12/12 01:30:47;;;;;;;;;;;7.70;58.20;;;;;;5072657;28;19954;-66
2021/12/12 01:33:21;;;;;;;;;;;7.70;58.80;;;;;;5072654;28;19948;-66
2021/12/12 01:35:47;;;;;;;;;;;7.70;58.20;;;;;;5072668;28;19909;-66
2021/12/12 01:40:58;;;;;;;;;;;7.60;58.20;;;;;;5075494;28;19919;-66
2021/12/12 01:43:43;;;;;;;;;;;7.60;58.30;;;;;;5076435;28;19908;-66
2021/12/12 01:46:18;;;;;;;;;;;7.50;58.30;;;;;;5076466;28;20392;-66
2021/12/12 01:48:49;;;;;;;;;;;7.50;58.40;;;;;;5076408;28;19975;-66
2021/12/12 01:51:16;;;;;;;;;;;7.50;58.40;;;;;;5076259;28;20286;-66
2021/12/12 01:53:44;;;;;;;;;;;7.50;58.40;;;;;;5076226;28;19955;-66
2021/12/12 01:56:13;;;;;;;;;;;7.50;59.00;;;;;;5076198;28;19908;-66
2021/12/12 01:58:40;;;;;;;;;;;7.40;58.50;;;;;;5074888;28;20290;-66
2021/12/12 02:01:08;;;;;;;;;;;7.40;58.50;;;;;;5076026;28;19919;-66
2021/12/12 02:03:35;;;;;;;;;;;7.40;59.20;;;;;;5076135;28;19908;-66
2021/12/12 02:06:01;;;;;;;;;;;7.40;58.60;;;;;;5075858;28;19909;-66
2021/12/12 02:08:29;;;;;;;;;;;7.30;58.60;;;;;;5075791;28;19915;-66
2021/12/12 02:10:56;;;;;;;;;;;7.30;58.60;;;;;;5075734;28;19992;-66
2021/12/12 02:13:23;;;;;;;;;;;7.30;58.70;;;;;;5075721;28;20018;-66
2021/12/12 02:15:50;;;;;;;;;;;7.30;58.80;;;;;;5075483;28;19921;-66
2021/12/12 02:18:19;;;;;;;;;;;7.30;58.80;;;;;;5075409;28;20427;-66
2021/12/12 02:21:04;;;;;;;;;;;7.30;58.80;;;;;;5075585;28;19915;-66
2021/12/12 02:23:56;;;;;;;;;;;7.30;58.80;;;;;;5075576;28;19930;-66
2021/12/12 02:37:21;;;;;;;;;;;7.30;58.80;;;;;;5075390;28;19958;-66
2021/12/12 02:39:46;;;;;;;;;;;7.30;58.70;;;;;;5075321;28;19916;-66
2021/12/12 02:42:14;;;;;;;;;;;7.30;58.80;;;;;;5075400;28;20250;-66
2021/12/12 02:44:40;;;;;;;;;;;7.20;58.70;;;;;;5075264;28;19905;-66
2021/12/12 02:47:13;;;;;;;;;;;7.20;58.80;;;;;;5075249;28;19912;-66
2021/12/12 02:52:28;;;;;;;;;;;7.20;58.80;;;;;;5074026;28;19908;-66
2021/12/12 02:54:56;;;;;;;;;;;7.20;58.90;;;;;;5075153;28;19999;-66
2021/12/12 02:57:23;;;;;;;;;;;7.30;58.90;;;;;;5075125;28;19908;-65
2021/12/12 02:59:50;;;;;;;;;;;7.30;58.90;;;;;;5074881;28;19916;-66
2021/12/12 03:02:20;;;;;;;;;;;7.30;58.90;;;;;;5074928;28;19908;-66
2021/12/12 03:04:46;;;;;;;;;;;7.30;58.90;;;;;;5075108;28;19904;-66
2021/12/12 03:07:12;;;;;;;;;;;7.30;58.90;;;;;;5074784;28;19973;-66
2021/12/12 03:09:47;;;;;;;;;;;7.30;58.90;;;;;;5074740;28;19905;-66
2021/12/12 03:12:30;;;;;;;;;;;7.30;58.90;;;;;;5074809;28;19952;-66
2021/12/12 03:14:58;;;;;;;;;;;7.40;58.90;;;;;;5074508;28;19962;-66
2021/12/12 03:17:24;;;;;;;;;;;7.40;58.90;;;;;;5074514;28;20342;-66
2021/12/12 03:19:51;;;;;;;;;;;7.40;58.90;;;;;;5074413;28;19958;-67
2021/12/12 03:22:18;;;;;;;;;;;7.40;59.00;;;;;;5074391;28;19949;-66
2021/12/12 03:24:44;;;;;;;;;;;7.50;59.00;;;;;;5074404;28;19911;-66
2021/12/12 03:27:10;;;;;;;;;;;7.40;59.00;;;;;;5074363;28;20003;-66
2021/12/12 03:29:36;;;;;;;;;;;7.50;59.00;;;;;;5074258;28;19912;-67
2021/12/12 03:32:08;;;;;;;;;;;7.50;59.00;;;;;;5074247;28;19958;-67
2021/12/12 03:34:36;;;;;;;;;;;7.50;59.00;;;;;;5074112;28;20335;-67
2021/12/12 03:37:03;;;;;;;;;;;7.60;59.00;;;;;;5074109;28;19939;-66
2021/12/12 03:39:30;;;;;;;;;;;7.60;59.00;;;;;;5074044;28;19912;-66
2021/12/12 03:41:57;;;;;;;;;;;7.60;58.90;;;;;;5072768;28;20262;-66
2021/12/12 03:44:25;;;;;;;;;;;7.50;58.90;;;;;;5073972;28;19999;-66
2021/12/12 03:46:53;;;;;;;;;;;7.60;58.90;;;;;;5072684;28;19909;-66
2021/12/12 03:49:19;;;;;;;;;;;7.60;59.00;;;;;;5073914;28;20281;-66
2021/12/12 03:51:45;;;;;;;;;;;7.60;59.00;;;;;;5073877;28;19909;-66
2021/12/12 03:54:11;;;;;;;;;;;7.70;59.00;;;;;;5073735;28;20354;-66
2021/12/12 03:56:38;;;;;;;;;;;7.70;59.00;;;;;;5073789;28;19962;-66
2021/12/12 03:59:04;;;;;;;;;;;7.70;58.90;;;;;;5073606;28;19978;-66
2021/12/12 04:01:32;;;;;;;;;;;7.70;58.90;;;;;;5073654;28;19908;-66
2021/12/12 04:04:00;;;;;;;;;;;7.70;58.80;;;;;;5073343;28;19905;-66
2021/12/12 04:06:27;;;;;;;;;;;7.70;58.80;;;;;;5073648;28;19908;-66
2021/12/12 04:08:53;;;;;;;;;;;7.70;58.80;;;;;;5073557;28;20332;-66
2021/12/12 04:11:21;;;;;;;;;;;7.70;58.70;;;;;;5072293;28;19908;-66
2021/12/12 04:13:48;;;;;;;;;;;7.70;58.80;;;;;;5072012;28;19905;-66
2021/12/12 04:16:14;;;;;;;;;;;7.70;58.80;;;;;;5073151;28;19921;-66
2021/12/12 04:18:40;;;;;;;;;;;7.70;58.80;;;;;;5073274;28;20014;-67
2021/12/12 04:21:06;;;;;;;;;;;7.70;58.90;;;;;;5073394;28;20419;-67
2021/12/12 04:23:31;;;;;;;;;;;7.70;58.90;;;;;;5073333;28;19931;-66
2021/12/12 04:26:20;;;;;;;;;;;7.70;58.90;;;;;;5073318;28;20003;-66
2021/12/12 04:29:04;;;;;;;;;;;7.70;58.80;;;;;;5073273;28;19912;-66
2021/12/12 04:31:30;;;;;;;;;;;7.70;58.80;;;;;;5073235;28;19909;-66
2021/12/12 04:33:56;;;;;;;;;;;7.70;58.80;;;;;;5073226;28;19916;-66
2021/12/12 04:36:27;;;;;;;;;;;7.70;58.80;;;;;;5073158;28;19908;-66
2021/12/12 04:38:57;;;;;;;;;;;7.70;58.80;;;;;;5073102;28;19920;-66
2021/12/12 04:41:22;;;;;;;;;;;7.70;58.80;;;;;;5073078;28;19909;-67
2021/12/12 04:43:48;;;;;;;;;;;7.70;58.80;;;;;;5073120;28;19904;-66
2021/12/12 04:46:22;;;;;;;;;;;7.80;58.80;;;;;;5073059;28;19919;-66
2021/12/12 04:51:45;;;;;;;;;;;7.80;58.80;;;;;;5073033;28;20316;-66
2021/12/12 04:54:29;;;;;;;;;;;7.80;58.80;;;;;;5072950;28;20282;-66
2021/12/12 04:57:07;;;;;;;;;;;7.80;58.70;;;;;;5072902;28;19908;-66
2021/12/12 04:59:35;;;;;;;;;;;7.80;58.70;;;;;;5072849;28;19912;-66
2021/12/12 05:02:07;;;;;;;;;;;7.80;58.70;;;;;;5072955;28;19916;-67
2021/12/12 05:04:42;;;;;;;;;;;7.80;58.70;;;;;;5072882;28;19916;-66
2021/12/12 05:07:16;;;;;;;;;;;7.80;58.70;;;;;;5072898;28;19908;-66
2021/12/12 05:09:50;;;;;;;;;;;7.80;58.70;;;;;;5072903;28;19931;-66
2021/12/12 05:12:24;;;;;;;;;;;7.80;58.70;;;;;;5072945;28;19908;-66
2021/12/12 05:14:52;;;;;;;;;;;7.80;58.70;;;;;;5073588;28;19908;-66
2021/12/12 05:17:20;;;;;;;;;;;7.80;58.70;;;;;;5077001;28;19913;-66
2021/12/12 05:19:48;;;;;;;;;;;7.90;58.70;;;;;;5076853;28;20323;-66
2021/12/12 05:22:34;;;;;;;;;;;7.90;58.70;;;;;;5076897;28;19919;-66
2021/12/12 05:25:01;;;;;;;;;;;7.90;58.70;;;;;;5076886;28;19912;-67
2021/12/12 05:27:27;;;;;;;;;;;7.90;58.60;;;;;;5076603;28;19908;-67
2021/12/12 05:29:58;;;;;;;;;;;7.90;58.60;;;;;;5076727;28;20285;-66
2021/12/12 05:32:24;;;;;;;;;;;7.90;58.60;;;;;;5076661;28;20281;-66
2021/12/12 05:34:51;;;;;;;;;;;7.90;58.60;;;;;;5076522;28;19905;-66
2021/12/12 05:37:19;;;;;;;;;;;8.00;58.60;;;;;;5076498;28;19908;-66
2021/12/12 05:39:45;;;;;;;;;;;8.00;58.60;;;;;;5076450;28;19912;-66
2021/12/12 05:42:13;;;;;;;;;;;8.00;58.60;;;;;;5076450;28;19909;-66
2021/12/12 05:44:38;;;;;;;;;;;8.00;58.60;;;;;;5076385;28;20320;-66
2021/12/12 05:47:06;;;;;;;;;;;8.00;58.60;;;;;;5076372;28;19909;-66
2021/12/12 05:49:32;;;;;;;;;;;8.00;58.60;;;;;;5076326;28;20281;-66
2021/12/12 05:51:59;;;;;;;;;;;8.00;58.50;;;;;;5076322;28;19916;-66
2021/12/12 05:54:25;;;;;;;;;;;8.00;58.50;;;;;;5076201;28;20374;-66
2021/12/12 05:56:51;;;;;;;;;;;8.00;58.40;;;;;;5076154;28;19923;-66
2021/12/12 05:59:17;;;;;;;;;;;8.00;58.40;;;;;;5076029;28;19916;-66
2021/12/12 06:01:42;;;;;;;;;;;8.00;58.40;;;;;;5076044;28;19909;-66
2021/12/12 06:04:08;;;;;;;;;;;8.00;58.50;;;;;;5075998;28;20358;-66
2021/12/12 06:06:37;;;;;;;;;;;8.00;58.40;;;;;;5075933;28;20289;-66
2021/12/12 06:09:05;;;;;;;;;;;8.00;58.30;;;;;;5074702;28;19908;-66
2021/12/12 06:11:32;;;;;;;;;;;8.10;58.40;;;;;;5075958;28;20305;-66
2021/12/12 06:13:59;;;;;;;;;;;8.00;58.40;;;;;;5075779;28;19908;-66
2021/12/12 06:16:25;;;;;;;;;;;8.00;58.40;;;;;;5075567;28;19927;-67
2021/12/12 06:18:52;;;;;;;;;;;8.00;58.30;;;;;;5075698;28;19912;-66
2021/12/12 06:21:18;;;;;;;;;;;8.00;58.30;;;;;;5075691;28;19916;-67
2021/12/12 06:23:44;;;;;;;;;;;8.00;58.30;;;;;;5075676;28;19905;-66
2021/12/12 06:26:09;;;;;;;;;;;8.00;58.30;;;;;;5075468;28;19943;-67
2021/12/12 06:28:37;;;;;;;;;;;8.00;58.20;;;;;;5075544;28;19950;-66
2021/12/12 06:31:03;;;;;;;;;;;8.00;58.30;;;;;;5075591;28;19930;-66
2021/12/12 06:33:29;;;;;;;;;;;8.00;58.30;;;;;;5075343;28;19919;-66
2021/12/12 06:35:55;;;;;;;;;;;8.00;58.30;;;;;;5075466;28;20274;-66
2021/12/12 06:38:21;;;;;;;;;;;8.00;58.30;;;;;;5075349;28;19908;-66
2021/12/12 06:40:47;;;;;;;;;;;8.00;58.30;;;;;;5075270;28;19912;-66
2021/12/12 06:43:15;;;;;;;;;;;8.00;58.30;;;;;;5075321;28;20278;-66
2021/12/12 06:45:40;;;;;;;;;;;8.00;58.30;;;;;;5075248;28;19908;-66
2021/12/12 06:48:07;;;;;;;;;;;8.00;58.30;;;;;;5075273;28;19909;-66
2021/12/12 06:50:34;;;;;;;;;;;8.00;58.30;;;;;;5075217;28;19912;-66
2021/12/12 06:53:00;;;;;;;;;;;8.00;58.30;;;;;;5075000;28;20439;-66
2021/12/12 06:55:26;;;;;;;;;;;8.00;58.30;;;;;;5075028;28;19908;-66
2021/12/12 06:57:51;;;;;;;;;;;8.00;58.40;;;;;;5075084;28;20345;-66
2021/12/12 07:00:20;;;;;;;;;;;8.00;58.30;;;;;;5074940;28;19955;-66
2021/12/12 07:02:46;;;;;;;;;;;8.00;58.30;;;;;;5074949;28;19912;-66
2021/12/12 07:05:13;;;;;;;;;;;8.00;58.30;;;;;;5074895;28;19970;-66
2021/12/12 07:07:38;;;;;;;;;;;8.00;58.30;;;;;;5074868;28;19908;-66
2021/12/12 07:10:05;;;;;;;;;;;8.00;58.30;;;;;;5074809;28;19962;-66
2021/12/12 07:12:32;;;;;;;;;;;8.00;58.40;;;;;;5074557;28;20378;-66
2021/12/12 07:14:57;;;;;;;;;;;8.00;58.40;;;;;;5074557;28;20433;-67
2021/12/12 07:17:23;;;;;;;;;;;8.00;58.40;;;;;;5074617;28;20003;-67
2021/12/12 07:19:49;;;;;;;;;;;8.00;58.40;;;;;;5074587;28;19912;-66
2021/12/12 07:22:15;;;;;;;;;;;8.00;58.40;;;;;;5074685;28;20358;-66
2021/12/12 07:24:42;;;;;;;;;;;8.00;58.40;;;;;;5074925;28;19904;-66
2021/12/12 07:27:08;;;;;;;;;;;8.00;59.10;;;;;;5074479;28;19908;-66
2021/12/12 07:29:34;;;;;;;;;;;8.00;58.50;;;;;;5074185;28;19916;-66
2021/12/12 07:32:00;;;;;;;;;;;8.00;58.50;;;;;;5074339;28;19908;-66
2021/12/12 07:34:27;;;;;;;;;;;8.00;58.60;;;;;;5074232;28;20277;-67
2021/12/12 07:36:54;;;;;;;;;;;8.00;58.60;;;;;;5073960;28;19904;-66
2021/12/12 07:39:22;;;;;;;;;;;8.00;58.60;;;;;;5073827;28;19912;-66
2021/12/12 07:41:48;;;;;;;;;;;8.00;58.70;;;;;;5072801;28;19908;-66
2021/12/12 07:44:16;;;;;;;;;;;8.00;58.70;;;;;;5074109;28;20289;-66
2021/12/12 07:46:43;;;;;;;;;;;8.10;58.80;;;;;;5073989;28;19908;-66
2021/12/12 07:49:09;;;;;;;;;;;8.10;58.80;;;;;;5073929;28;19962;-66
2021/12/12 07:51:37;;;;;;;;;;;8.00;58.70;;;;;;5073758;28;19960;-67
2021/12/12 07:54:05;;;;;;;;;;;8.10;58.70;;;;;;5073856;28;19916;-66
2021/12/12 07:56:33;;;;;;;;;;;8.00;58.70;;;;;;5073737;28;19920;-66
2021/12/12 07:59:01;;;;;;;;;;;8.10;58.80;;;;;;5073666;28;19920;-66
2021/12/12 08:01:27;;;;;;;;;;;8.10;58.80;;;;;;5073729;28;19908;-66
2021/12/12 08:03:54;;;;;;;;;;;8.10;58.80;;;;;;5073691;28;19911;-66
2021/12/12 08:06:20;;;;;;;;;;;8.10;58.90;;;;;;5073599;28;19958;-66
2021/12/12 08:08:46;;;;;;;;;;;8.10;58.90;;;;;;5073479;28;19909;-66
2021/12/12 08:11:15;;;;;;;;;;;8.10;58.90;;;;;;5073393;28;19973;-66
2021/12/12 08:13:40;;;;;;;;;;;8.10;58.90;;;;;;5073508;28;19904;-67
2021/12/12 08:16:08;;;;;;;;;;;8.10;58.90;;;;;;5073427;28;19927;-66
2021/12/12 08:18:34;;;;;;;;;;;8.10;58.90;;;;;;5073471;28;20358;-66
2021/12/12 08:21:00;;;;;;;;;;;8.10;58.90;;;;;;5073511;28;19912;-66
2021/12/12 08:23:26;;;;;;;;;;;8.10;58.90;;;;;;5073382;28;19940;-66
2021/12/12 08:25:54;;;;;;;;;;;8.20;59.00;;;;;;5073377;28;20309;-66
2021/12/12 08:28:20;;;;;;;;;;;8.20;59.10;;;;;;5073370;28;19908;-66
2021/12/12 08:30:46;;;;;;;;;;;8.20;59.10;;;;;;5073305;28;20419;-66
2021/12/12 08:33:13;;;;;;;;;;;8.20;59.00;;;;;;5073178;28;20277;-67
2021/12/12 08:35:39;;;;;;;;;;;8.20;59.00;;;;;;5073317;28;19912;-67
2021/12/12 08:38:06;;;;;;;;;;;8.20;59.00;;;;;;5073197;28;19958;-66
2021/12/12 08:40:33;;;;;;;;;;;8.30;59.10;;;;;;5073115;28;19974;-66
2021/12/12 08:43:00;;;;;;;;;;;8.30;59.10;;;;;;5073409;28;19994;-66
2021/12/12 08:45:29;;;;;;;;;;;8.30;59.10;;;;;;5073107;28;19915;-66
2021/12/12 08:47:55;;;;;;;;;;;8.30;59.00;;;;;;5073150;28;20016;-66
2021/12/12 08:50:23;;;;;;;;;;;8.40;59.10;;;;;;5072109;28;19909;-67
2021/12/12 08:52:49;;;;;;;;;;;8.30;59.10;;;;;;5073100;28;19909;-67
2021/12/12 08:55:20;;;;;;;;;;;8.40;59.20;;;;;;5073024;28;20003;-67
2021/12/12 09:00:18;;;;;;;;;;;8.50;59.50;;;;;;5072915;28;19913;-67
2021/12/12 09:02:44;;;;;;;;;;;8.60;59.60;;;;;;5072916;28;19916;-66
2021/12/12 09:05:18;;;;;;;;;;;8.60;59.50;;;;;;5072923;28;19913;-67
2021/12/12 09:07:45;;;;;;;;;;;8.70;59.40;;;;;;5072899;28;19931;-67
2021/12/12 09:10:24;;;;;;;;;;;8.80;59.40;;;;;;5072831;28;19909;-66
2021/12/12 09:12:54;;;;;;;;;;;8.80;59.10;;;;;;5072867;28;20003;-67
2021/12/12 09:15:26;;;;;;;;;;;8.90;59.10;;;;;;5072707;28;19917;-67
2021/12/12 09:17:57;;;;;;;;;;;8.90;59.00;;;;;;5072907;28;19955;-67
2021/12/12 09:20:31;;;;;;;;;;;8.90;59.10;;;;;;5072976;28;20449;-67
2021/12/12 09:23:08;;;;;;;;;;;9.00;59.10;;;;;;5072829;28;20370;-66
2021/12/12 09:25:40;;;;;;;;;;;9.00;59.00;;;;;;5072767;28;19920;-66
2021/12/12 09:28:05;;;;;;;;;;;9.00;59.00;;;;;;5072811;28;20431;-67
2021/12/12 09:30:31;;;;;;;;;;;9.00;58.90;;;;;;5072691;28;19913;-67
2021/12/12 09:32:57;;;;;;;;;;;9.10;58.90;;;;;;5072423;28;19909;-66
2021/12/12 09:35:28;;;;;;;;;;;9.10;58.70;;;;;;5071274;28;19915;-66
2021/12/12 09:38:06;;;;;;;;;;;9.10;58.70;;;;;;5072602;28;19962;-67
2021/12/12 09:40:31;;;;;;;;;;;9.10;58.70;;;;;;5072545;28;19912;-66
2021/12/12 09:43:15;;;;;;;;;;;9.20;58.70;;;;;;5072549;28;19954;-65
2021/12/12 09:45:53;;;;;;;;;;;9.20;58.60;;;;;;5072639;28;19909;-66
2021/12/12 09:51:22;;;;;;;;;;;9.20;58.50;;;;;;5072557;28;20443;-66
2021/12/12 09:53:58;;;;;;;;;;;9.20;58.50;;;;;;5072846;28;19915;-66
2021/12/12 09:56:42;;;;;;;;;;;9.20;58.50;;;;;;5072420;28;19909;-66
2021/12/12 09:59:26;;;;;;;;;;;9.20;58.50;;;;;;5072307;28;19912;-66
2021/12/12 10:02:05;;;;;;;;;;;9.20;58.50;;;;;;5074781;28;19916;-65
2021/12/12 10:04:48;;;;;;;;;;;9.20;58.50;;;;;;5075999;28;19909;-65
2021/12/12 10:07:20;;;;;;;;;;;9.20;58.50;;;;;;5075827;28;19914;-65
2021/12/12 10:09:56;;;;;;;;;;;9.20;58.50;;;;;;5074670;28;20273;-66
2021/12/12 10:12:44;;;;;;;;;;;9.20;58.50;;;;;;5075785;28;20357;-65
2021/12/12 10:15:11;;;;;;;;;;;9.20;58.50;;;;;;5075584;28;19916;-65
2021/12/12 10:17:40;;;;;;;;;;;9.20;58.60;;;;;;5075890;28;19912;-65
2021/12/12 10:20:20;;;;;;;;;;;9.20;58.50;;;;;;5075730;28;19917;-65
2021/12/12 10:23:01;;;;;;;;;;;9.20;58.40;;;;;;5074468;28;19909;-65
2021/12/12 10:25:34;;;;;;;;;;;9.20;58.50;;;;;;5075652;28;20277;-65
2021/12/12 10:28:11;;;;;;;;;;;9.20;58.50;;;;;;5075669;28;19908;-66
2021/12/12 10:30:44;;;;;;;;;;;9.20;58.50;;;;;;5075659;28;19916;-66
2021/12/12 10:33:13;;;;;;;;;;;9.30;58.50;;;;;;5074077;28;19999;-65
2021/12/12 10:35:38;;;;;;;;;;;9.30;58.50;;;;;;5075407;28;19909;-66
2021/12/12 10:38:04;;;;;;;;;;;9.30;58.50;;;;;;5075490;28;19916;-66
2021/12/12 10:40:34;;;;;;;;;;;9.40;58.60;;;;;;5075250;28;19920;-66
2021/12/12 10:43:02;;;;;;;;;;;9.40;58.60;;;;;;5075304;28;19917;-66
2021/12/12 10:45:31;;;;;;;;;;;9.50;58.60;;;;;;5075290;28;19909;-66
2021/12/12 10:48:05;;;;;;;;;;;9.60;58.60;;;;;;5075133;28;20018;-66
2021/12/12 10:50:37;;;;;;;;;;;9.60;58.50;;;;;;5075131;28;19962;-66
2021/12/12 10:53:03;;;;;;;;;;;9.70;58.40;;;;;;5075254;28;20008;-66
2021/12/12 10:55:34;;;;;;;;;;;9.80;58.40;;;;;;5075117;28;19944;-66
2021/12/12 10:58:18;;;;;;;;;;;9.80;58.10;;;;;;5075073;28;19908;-66
2021/12/12 11:00:48;;;;;;;;;;;9.90;58.00;;;;;;5074885;28;19920;-66
2021/12/12 11:03:27;;;;;;;;;;;9.90;57.90;;;;;;5074953;28;20255;-66
2021/12/12 11:06:02;;;;;;;;;;;9.90;57.80;;;;;;5074802;28;19909;-66
2021/12/12 11:08:36;;;;;;;;;;;10.00;57.90;;;;;;5074809;28;19915;-66
2021/12/12 11:11:22;;;;;;;;;;;10.10;58.00;;;;;;5073390;28;19916;-66
2021/12/12 11:13:50;;;;;;;;;;;10.10;57.90;;;;;;5073377;28;19919;-66
2021/12/12 11:16:25;;;;;;;;;;;10.20;57.80;;;;;;5074542;28;20386;-66
2021/12/12 11:19:02;;;;;;;;;;;10.30;57.60;;;;;;5074573;28;19908;-66
2021/12/12 11:21:31;;;;;;;;;;;10.40;57.40;;;;;;5074670;28;19908;-66
2021/12/12 11:24:02;;;;;;;;;;;10.40;57.30;;;;;;5074534;28;20384;-66
2021/12/12 11:26:34;;;;;;;;;;;10.40;57.10;;;;;;5074495;28;19908;-66
2021/12/12 11:29:02;;;;;;;;;;;10.50;56.90;;;;;;5074426;28;19908;-66
2021/12/12 11:31:37;;;;;;;;;;;10.50;56.90;;;;;;5074365;28;19915;-66
2021/12/12 11:34:05;;;;;;;;;;;10.50;56.60;;;;;;5074306;28;19927;-66
2021/12/12 11:36:45;;;;;;;;;;;10.50;56.40;;;;;;5073257;28;20325;-66
2021/12/12 11:39:26;;;;;;;;;;;10.50;56.30;;;;;;5072742;28;19912;-67
2021/12/12 11:42:04;;;;;;;;;;;10.40;55.90;;;;;;5072873;28;19931;-67
2021/12/12 11:44:36;;;;;;;;;;;10.40;55.80;;;;;;5074183;28;20316;-67
2021/12/12 11:47:05;;;;;;;;;;;10.40;55.70;;;;;;5074129;28;19908;-66
2021/12/12 11:49:42;;;;;;;;;;;10.40;55.80;;;;;;5074070;28;19954;-66
2021/12/12 11:52:09;;;;;;;;;;;10.30;55.70;;;;;;5074000;28;19954;-66
2021/12/12 11:54:34;;;;;;;;;;;10.30;55.60;;;;;;5073909;28;19909;-66
2021/12/12 11:57:05;;;;;;;;;;;10.20;55.50;;;;;;5073915;28;20254;-66
2021/12/12 11:59:36;;;;;;;;;;;10.20;55.40;;;;;;5074019;28;19912;-65
2021/12/12 12:02:02;;;;;;;;;;;10.20;55.40;;;;;;5074298;28;20327;-66
2021/12/12 12:04:54;;;;;;;;;;;10.10;55.50;;;;;;5073763;28;19908;-66
2021/12/12 12:07:35;;;;;;;;;;;10.10;55.50;;;;;;5074037;28;20003;-66
2021/12/12 12:10:08;;;;;;;;;;;10.10;55.40;;;;;;5073710;28;19908;-66
2021/12/12 12:12:52;;;;;;;;;;;10.00;55.40;;;;;;5073567;28;19975;-66
2021/12/12 12:15:37;;;;;;;;;;;10.00;55.40;;;;;;5073422;28;20005;-66
2021/12/12 12:18:05;;;;;;;;;;;10.00;55.30;;;;;;5073514;28;20008;-66
2021/12/12 12:20:31;;;;;;;;;;;9.90;55.10;;;;;;5073427;28;19912;-66
2021/12/12 12:23:02;;;;;;;;;;;9.90;54.90;;;;;;5072245;28;19915;-66
2021/12/12 12:26:50;;;;;;;;;;;9.80;55.10;;;;;;5073327;28;19914;-67
2021/12/12 12:28:24;;;;;;;;;;;9.80;55.10;;;;;;5073309;28;19909;-66
2021/12/12 12:31:02;;;;;;;;;;;9.80;54.80;;;;;;5073249;28;19966;-66
2021/12/12 12:34:03;;;;;;;;;;;9.70;54.80;;;;;;5073207;28;19931;-66
2021/12/12 12:36:47;;;;;;;;;;;9.60;54.80;;;;;;5071087;28;20358;-66
2021/12/12 12:39:31;;;;;;;;;;;9.60;54.80;;;;;;5072811;28;20393;-67
2021/12/12 12:42:15;;;;;;;;;;;9.50;54.70;;;;;;5073183;28;19915;-66
2021/12/12 12:44:59;;;;;;;;;;;9.40;54.80;;;;;;5073184;28;19912;-66
2021/12/12 12:47:42;;;;;;;;;;;9.40;54.80;;;;;;5073054;28;19995;-66
2021/12/12 12:50:26;;;;;;;;;;;9.40;55.00;;;;;;5073042;28;19916;-66
2021/12/12 12:53:03;;;;;;;;;;;9.30;54.90;;;;;;5072813;28;19915;-66
2021/12/12 12:55:40;;;;;;;;;;;9.30;55.00;;;;;;5073089;28;19924;-66
2021/12/12 12:58:27;;;;;;;;;;;9.30;55.10;;;;;;5071659;28;20419;-66
2021/12/12 13:01:25;;;;;;;;;;;9.30;55.00;;;;;;5072945;28;19919;-66
2021/12/12 13:04:02;;;;;;;;;;;9.30;55.10;;;;;;5056057;28;20263;-66
2021/12/12 13:06:43;;;;;;;;;;;9.30;55.10;;;;;;5033939;28;19908;-66
2021/12/12 13:09:19;;;;;;;;;;;9.30;55.10;;;;;;5050653;28;19908;-66
2021/12/12 13:11:54;;;;;;;;;;;9.30;55.10;;;;;;5050685;28;19909;-66
2021/12/12 13:14:20;;;;;;;;;;;9.30;55.20;;;;;;5050583;28;19916;-66
2021/12/12 13:16:58;;;;;;;;;;;9.30;55.20;;;;;;5050507;28;19921;-66
2021/12/12 13:19:44;;;;;;;;;;;9.30;55.20;;;;;;5050224;28;19920;-66
2021/12/12 13:22:09;;;;;;;;;;;9.40;55.30;;;;;;5010442;28;20380;-66
2021/12/12 13:24:44;;;;;;;;;;;9.40;55.30;;;;;;5050430;28;20005;-65
2021/12/12 13:27:27;;;;;;;;;;;9.40;55.30;;;;;;5050463;28;20406;-66
2021/12/12 13:29:53;;;;;;;;;;;9.40;55.20;;;;;;5050525;28;19908;-66
2021/12/12 13:32:21;;;;;;;;;;;9.40;55.20;;;;;;5050432;28;19919;-66
2021/12/12 13:34:53;;;;;;;;;;;9.40;55.10;;;;;;5050247;28;19936;-66
2021/12/12 13:37:35;;;;;;;;;;;9.50;55.10;;;;;;5037124;28;20329;-65
2021/12/12 13:40:06;;;;;;;;;;;9.40;55.00;;;;;;5040887;28;19917;-66
2021/12/12 13:42:45;;;;;;;;;;;9.50;55.10;;;;;;5036647;28;19909;-65
2021/12/12 13:45:29;;;;;;;;;;;9.40;54.90;;;;;;5036546;28;20056;-66
2021/12/12 13:48:13;;;;;;;;;;;9.50;54.80;;;;;;5036015;28;19909;-65
2021/12/12 13:50:39;;;;;;;;;;;9.40;54.70;;;;;;5036303;28;19997;-66
2021/12/12 13:53:14;;;;;;;;;;;9.40;54.70;;;;;;5036334;28;19979;-66
2021/12/12 13:55:59;;;;;;;;;;;9.40;54.60;;;;;;5036398;28;19916;-65
2021/12/12 13:58:37;;;;;;;;;;;9.50;54.60;;;;;;5036297;28;19959;-65
2021/12/12 14:01:09;;;;;;;;;;;9.50;54.60;;;;;;5034709;28;19917;-65
2021/12/12 14:03:42;;;;;;;;;;;9.50;54.50;;;;;;5036030;28;20000;-65
2021/12/12 14:06:12;;;;;;;;;;;9.50;54.50;;;;;;5036113;28;20008;-65
2021/12/12 14:08:58;;;;;;;;;;;9.50;54.60;;;;;;5035994;28;20008;-65
2021/12/12 14:11:26;;;;;;;;;;;9.60;54.50;;;;;;5035810;28;19917;-65
2021/12/12 14:13:55;;;;;;;;;;;9.60;54.50;;;;;;5035890;28;19909;-65
2021/12/12 14:16:35;;;;;;;;;;;9.60;54.40;;;;;;5049263;28;19921;-65
2021/12/12 14:19:09;;;;;;;;;;;9.60;54.40;;;;;;5055705;28;19909;-65
2021/12/12 14:21:36;;;;;;;;;;;9.60;54.40;;;;;;5055830;28;19959;-66
2021/12/12 14:24:03;;;;;;;;;;;9.60;54.30;;;;;;5055659;28;19959;-65
2021/12/12 14:26:31;;;;;;;;;;;9.50;54.10;;;;;;5055610;28;20372;-65
2021/12/12 14:28:59;;;;;;;;;;;9.40;53.90;;;;;;5055456;28;20008;-65
2021/12/12 14:31:28;;;;;;;;;;;9.40;53.80;;;;;;5055403;28;19908;-65
2021/12/12 14:34:19;;;;;;;;;;;9.20;53.70;;;;;;5055400;28;19908;-65
2021/12/12 14:36:47;;;;;;;;;;;9.10;53.60;;;;;;5055043;28;19909;-65
2021/12/12 14:39:15;;;;;;;;;;;9.00;53.60;;;;;;5055376;28;19919;-67
2021/12/12 14:41:44;;;;;;;;;;;8.90;53.60;;;;;;5055397;28;19909;-67
2021/12/12 14:44:17;;;;;;;;;;;8.80;53.70;;;;;;5058563;28;19912;-65
2021/12/12 14:46:44;;;;;;;;;;;8.70;53.70;;;;;;5058714;28;19994;-65
2021/12/12 14:49:12;;;;;;;;;;;8.60;53.70;;;;;;5055322;28;20359;-66
2021/12/12 14:51:44;;;;;;;;;;;8.60;53.80;;;;;;5054874;28;19913;-65
2021/12/12 14:54:12;;;;;;;;;;;8.50;53.90;;;;;;5055282;28;19909;-66
2021/12/12 14:56:44;;;;;;;;;;;8.50;53.90;;;;;;5055099;28;20227;-67
2021/12/12 14:59:11;;;;;;;;;;;8.40;53.90;;;;;;5056010;28;19913;-66
2021/12/12 15:01:45;;;;;;;;;;;8.40;54.00;;;;;;5054865;28;19909;-66
2021/12/12 15:04:16;;;;;;;;;;;8.30;54.10;;;;;;5058743;28;19919;-65
2021/12/12 15:06:46;;;;;;;;;;;8.30;54.10;;;;;;5074875;28;19915;-66
2021/12/12 15:09:15;;;;;;;;;;;8.30;54.20;;;;;;5074816;28;20354;-66
2021/12/12 15:11:42;;;;;;;;;;;8.30;54.20;;;;;;5073336;28;19978;-66
2021/12/12 15:14:13;;;;;;;;;;;8.30;54.20;;;;;;5057284;28;19919;-66